Time;durP1;ratioP1;P1;durP2;ratioP2;P2;SDS_P1;SDS_P2;PMS_P1;PMS_P2;Temp;Humidity;BMP_temperature;BMP_pressure;BME280_temperature;BME280_humidity;BME280_pressure;Samples;Min_cycle;Max_cycle;Signal;HPM_P1;HPM_P2
2023/04/05 00:01:54;;;;;;;7.00;3.30;;;;;;;;;;5022552;28;20972;-65
2023/04/05 00:04:22;;;;;;;7.03;2.90;;;;;;;;;;5012371;28;20450;-65
2023/04/05 00:06:51;;;;;;;8.23;2.97;;;;;;;;;;5027808;28;20527;-65
2023/04/05 00:09:19;;;;;;;10.13;3.30;;;;;;;;;;5026666;28;20426;-65
2023/04/05 00:11:46;;;;;;;8.47;3.23;;;;;;;;;;5027746;28;20478;-65
2023/04/05 00:14:13;;;;;;;8.33;3.37;;;;;;;;;;5021584;28;20479;-65
2023/04/05 00:16:40;;;;;;;7.43;3.37;;;;;;;;;;5011005;28;20438;-65
2023/04/05 00:19:07;;;;;;;9.43;3.47;;;;;;;;;;5002970;28;20450;-65
2023/04/05 00:21:34;;;;;;;10.10;3.53;;;;;;;;;;5027404;28;20481;-65
2023/04/05 00:24:01;;;;;;;7.53;3.57;;;;;;;;;;5028077;28;20485;-65
2023/04/05 00:26:28;;;;;;;9.13;3.70;;;;;;;;;;5031217;28;20476;-65
2023/04/05 00:28:56;;;;;;;8.60;3.70;;;;;;;;;;5012756;28;20464;-65
2023/04/05 00:31:25;;;;;;;9.97;3.33;;;;;;;;;;5006897;28;20451;-65
2023/04/05 00:33:52;;;;;;;11.03;4.10;;;;;;;;;;5011390;28;20961;-65
2023/04/05 00:36:19;;;;;;;7.23;3.53;;;;;;;;;;5027679;28;20450;-65
2023/04/05 00:38:47;;;;;;;10.63;3.70;;;;;;;;;;5030961;28;20504;-65
2023/04/05 00:41:13;;;;;;;7.97;3.47;;;;;;;;;;5030240;28;20492;-65
2023/04/05 00:43:40;;;;;;;6.53;3.20;;;;;;;;;;5010983;28;20516;-65
2023/04/05 00:46:10;;;;;;;7.50;3.33;;;;;;;;;;5030954;28;20457;-65
2023/04/05 00:48:37;;;;;;;8.83;3.13;;;;;;;;;;5031983;28;20591;-65
2023/04/05 00:51:03;;;;;;;7.57;3.23;;;;;;;;;;5029157;28;20452;-65
2023/04/05 00:53:30;;;;;;;8.47;3.10;;;;;;;;;;5028797;28;20490;-65
2023/04/05 00:55:57;;;;;;;7.70;3.03;;;;;;;;;;5029094;28;20457;-65
2023/04/05 00:58:24;;;;;;;6.93;2.80;;;;;;;;;;4995933;28;20462;-65
2023/04/05 01:00:58;;;;;;;5.73;3.07;;;;;;;;;;5029686;28;20508;-65
2023/04/05 01:03:26;;;;;;;7.87;3.50;;;;;;;;;;5029719;28;20949;-65
2023/04/05 01:05:56;;;;;;;7.70;3.53;;;;;;;;;;5012756;28;20426;-65
2023/04/05 01:08:25;;;;;;;6.87;2.97;;;;;;;;;;5029263;28;20486;-65
2023/04/05 01:10:57;;;;;;;6.10;2.60;;;;;;;;;;5025491;28;20499;-65
2023/04/05 01:13:24;;;;;;;7.40;2.97;;;;;;;;;;5008947;28;20533;-65
2023/04/05 01:15:51;;;;;;;8.90;3.00;;;;;;;;;;5026002;28;20460;-65
2023/04/05 01:18:17;;;;;;;7.30;2.80;;;;;;;;;;5029769;28;20529;-65
2023/04/05 01:20:45;;;;;;;8.40;3.03;;;;;;;;;;5028249;28;20464;-65
2023/04/05 01:23:50;;;;;;;5.17;2.60;;;;;;;;;;5011174;28;20462;-65
2023/04/05 01:26:30;;;;;;;8.60;3.13;;;;;;;;;;4948304;28;20794;-65
2023/04/05 01:29:20;;;;;;;5.37;2.83;;;;;;;;;;4948999;28;20434;-65
2023/04/05 01:32:01;;;;;;;7.37;2.80;;;;;;;;;;4976425;28;20481;-65
2023/04/05 01:34:32;;;;;;;6.23;2.77;;;;;;;;;;5017765;28;20448;-65
2023/04/05 01:37:01;;;;;;;7.83;3.10;;;;;;;;;;5029835;28;20449;-65
2023/04/05 01:39:27;;;;;;;6.17;3.03;;;;;;;;;;5011670;28;20508;-65
2023/04/05 01:41:58;;;;;;;10.80;3.53;;;;;;;;;;5022824;28;20479;-65
2023/04/05 02:17:06;;;;;;;6.10;2.67;;;;;;;;;;5015242;28;20580;-65
2023/04/05 02:19:39;;;;;;;5.33;2.30;;;;;;;;;;5028511;28;20442;-65
2023/04/05 02:22:07;;;;;;;6.13;2.47;;;;;;;;;;5010981;28;20539;-64
2023/04/05 02:24:34;;;;;;;5.10;2.50;;;;;;;;;;5026569;28;20457;-64
2023/04/05 02:27:00;;;;;;;7.10;2.70;;;;;;;;;;5009964;28;20448;-64
2023/04/05 02:29:27;;;;;;;6.00;2.67;;;;;;;;;;5027340;28;20442;-64
2023/04/05 02:31:54;;;;;;;6.03;2.30;;;;;;;;;;5007405;28;20451;-64
2023/04/05 02:34:21;;;;;;;7.33;2.77;;;;;;;;;;5020378;28;20566;-64
2023/04/05 02:36:51;;;;;;;4.77;2.37;;;;;;;;;;5027878;28;20461;-64
2023/04/05 02:39:18;;;;;;;7.17;2.77;;;;;;;;;;5027904;28;20477;-64
2023/04/05 02:41:45;;;;;;;9.13;3.67;;;;;;;;;;5028894;28;20547;-64
2023/04/05 02:44:12;;;;;;;10.67;3.70;;;;;;;;;;5011175;28;20461;-64
2023/04/05 02:46:39;;;;;;;10.80;3.80;;;;;;;;;;5029912;28;20449;-64
2023/04/05 02:49:06;;;;;;;10.67;4.73;;;;;;;;;;5026745;28;20504;-64
2023/04/05 02:51:35;;;;;;;10.87;4.50;;;;;;;;;;5013780;28;21021;-64
2023/04/05 02:54:06;;;;;;;10.60;4.23;;;;;;;;;;5010854;28;20565;-64
2023/04/05 02:56:35;;;;;;;9.40;4.47;;;;;;;;;;5010426;28;20449;-64
2023/04/05 02:59:08;;;;;;;11.00;4.00;;;;;;;;;;5027083;28;21021;-64
2023/04/05 03:01:35;;;;;;;7.37;3.47;;;;;;;;;;5011601;28;20505;-64
2023/04/05 03:04:03;;;;;;;6.67;3.47;;;;;;;;;;5027795;28;20934;-64
2023/04/05 03:06:31;;;;;;;5.17;2.77;;;;;;;;;;5008660;28;20470;-64
2023/04/05 03:09:00;;;;;;;6.77;2.77;;;;;;;;;;5010055;28;20458;-64
2023/04/05 03:11:28;;;;;;;4.53;2.57;;;;;;;;;;5027512;28;20849;-64
2023/04/05 03:13:58;;;;;;;4.67;2.70;;;;;;;;;;5009559;28;20871;-64
2023/04/05 03:16:38;;;;;;;5.13;2.50;;;;;;;;;;5006592;28;20486;-64
2023/04/05 03:19:21;;;;;;;4.10;2.43;;;;;;;;;;5011468;28;20469;-63
2023/04/05 03:21:51;;;;;;;5.03;2.30;;;;;;;;;;5009029;28;20518;-64
2023/04/05 03:24:31;;;;;;;3.77;2.00;;;;;;;;;;5009454;28;20472;-64
2023/04/05 03:27:02;;;;;;;7.93;2.57;;;;;;;;;;5027917;28;20529;-63
2023/04/05 03:29:35;;;;;;;5.87;2.70;;;;;;;;;;5010576;28;20459;-64
2023/04/05 03:32:12;;;;;;;4.97;2.73;;;;;;;;;;5012002;28;20460;-65
2023/04/05 03:34:47;;;;;;;6.40;2.40;;;;;;;;;;5016072;28;20481;-62
2023/04/05 03:37:15;;;;;;;6.73;2.50;;;;;;;;;;5002900;28;20473;-65
2023/04/05 03:39:48;;;;;;;6.10;2.70;;;;;;;;;;5002675;28;20466;-64
2023/04/05 03:42:16;;;;;;;7.87;3.43;;;;;;;;;;5006943;28;20490;-64
2023/04/05 03:44:44;;;;;;;15.97;5.10;;;;;;;;;;5010622;28;20446;-64
2023/04/05 03:47:12;;;;;;;8.57;3.07;;;;;;;;;;5024672;28;20465;-65
2023/04/05 03:49:40;;;;;;;13.20;4.90;;;;;;;;;;5006140;28;20473;-62
2023/04/05 03:52:09;;;;;;;11.13;4.57;;;;;;;;;;5006027;28;20464;-63
2023/04/05 03:54:42;;;;;;;7.60;3.10;;;;;;;;;;5006715;28;20869;-62
2023/04/05 03:57:12;;;;;;;6.07;3.17;;;;;;;;;;5006636;28;20569;-62
2023/04/05 03:59:41;;;;;;;7.97;2.70;;;;;;;;;;5010682;28;20489;-62
2023/04/05 04:02:08;;;;;;;7.73;3.37;;;;;;;;;;5031054;28;21125;-65
2023/04/05 04:04:35;;;;;;;5.10;2.73;;;;;;;;;;5027847;28;20460;-64
2023/04/05 04:07:01;;;;;;;8.33;3.50;;;;;;;;;;5009346;28;20964;-64
2023/04/05 04:09:29;;;;;;;9.53;3.03;;;;;;;;;;4999157;28;21286;-62
2023/04/05 04:12:04;;;;;;;5.03;2.93;;;;;;;;;;5006400;28;20585;-63
2023/04/05 04:14:33;;;;;;;7.37;3.37;;;;;;;;;;5026262;28;20454;-63
2023/04/05 04:17:33;;;;;;;10.00;3.50;;;;;;;;;;5014737;28;20461;-63
2023/04/05 04:20:24;;;;;;;6.17;3.10;;;;;;;;;;5007388;28;20497;-63
2023/04/05 04:23:09;;;;;;;13.77;4.33;;;;;;;;;;5027131;28;20548;-65
2023/04/05 04:25:56;;;;;;;12.63;3.97;;;;;;;;;;5027463;28;20458;-63
2023/04/05 04:28:42;;;;;;;41.33;15.87;;;;;;;;;;5009029;28;20555;-63
2023/04/05 04:31:22;;;;;;;23.53;9.47;;;;;;;;;;5015758;28;21205;-62
2023/04/05 04:34:24;;;;;;;15.57;5.33;;;;;;;;;;4958921;28;20489;-62
2023/04/05 04:37:06;;;;;;;16.57;4.97;;;;;;;;;;5011421;28;20465;-63
2023/04/05 04:39:51;;;;;;;10.73;4.63;;;;;;;;;;5030368;28;20611;-62
2023/04/05 04:42:37;;;;;;;9.10;4.27;;;;;;;;;;5011053;28;20462;-62
2023/04/05 04:45:08;;;;;;;12.53;4.93;;;;;;;;;;5029042;28;20447;-64
2023/04/05 04:47:53;;;;;;;9.50;3.80;;;;;;;;;;5025906;28;20442;-64
2023/04/05 04:50:33;;;;;;;8.90;3.50;;;;;;;;;;5030049;28;20500;-64
2023/04/05 04:53:03;;;;;;;7.03;3.87;;;;;;;;;;5030932;28;20842;-63
2023/04/05 04:55:32;;;;;;;12.93;4.00;;;;;;;;;;5030761;28;20434;-64
2023/04/05 04:57:59;;;;;;;12.00;4.07;;;;;;;;;;5032838;28;20449;-64
2023/04/05 05:00:29;;;;;;;8.93;4.40;;;;;;;;;;5009074;28;21202;-64
2023/04/05 05:02:57;;;;;;;10.80;4.53;;;;;;;;;;5026494;28;21027;-65
2023/04/05 05:05:26;;;;;;;19.03;5.13;;;;;;;;;;5027311;28;20434;-64
2023/04/05 05:07:53;;;;;;;10.63;4.03;;;;;;;;;;5027556;28;21053;-62
2023/04/05 05:10:19;;;;;;;7.60;4.07;;;;;;;;;;5027531;28;20430;-65
2023/04/05 05:12:50;;;;;;;6.37;3.60;;;;;;;;;;5027103;28;20764;-65
2023/04/05 05:15:17;;;;;;;11.00;4.50;;;;;;;;;;5031811;28;20442;-64
2023/04/05 05:17:46;;;;;;;10.27;4.23;;;;;;;;;;5031456;28;20446;-65
2023/04/05 05:20:12;;;;;;;11.37;3.93;;;;;;;;;;5032028;28;20441;-63
2023/04/05 05:22:45;;;;;;;11.73;4.13;;;;;;;;;;5010735;28;20556;-65
2023/04/05 05:25:13;;;;;;;10.70;4.30;;;;;;;;;;5011395;28;20452;-64
2023/04/05 05:27:40;;;;;;;10.50;4.07;;;;;;;;;;5027779;28;20442;-65
2023/04/05 05:30:06;;;;;;;7.80;3.97;;;;;;;;;;5021663;28;20446;-66
2023/04/05 05:32:34;;;;;;;8.23;4.20;;;;;;;;;;5026107;28;20439;-64
2023/04/05 05:35:01;;;;;;;11.43;3.90;;;;;;;;;;5027112;28;20434;-64
2023/04/05 05:37:31;;;;;;;12.70;4.17;;;;;;;;;;5012466;28;20785;-65
2023/04/05 05:39:58;;;;;;;9.97;4.43;;;;;;;;;;5027278;28;20876;-63
2023/04/05 05:42:26;;;;;;;8.63;4.13;;;;;;;;;;5033719;28;20477;-64
2023/04/05 05:44:53;;;;;;;7.83;3.60;;;;;;;;;;5025925;28;20427;-63
2023/04/05 05:47:21;;;;;;;10.47;3.87;;;;;;;;;;5026551;28;21039;-63
2023/04/05 05:49:50;;;;;;;8.07;4.20;;;;;;;;;;5026262;28;20442;-63
2023/04/05 05:52:17;;;;;;;9.57;4.07;;;;;;;;;;5027160;28;20430;-63
2023/04/05 05:54:44;;;;;;;8.50;3.73;;;;;;;;;;5026486;28;20442;-63
2023/04/05 05:57:11;;;;;;;5.27;2.97;;;;;;;;;;5024844;28;20442;-63
2023/04/05 05:59:38;;;;;;;8.60;3.90;;;;;;;;;;5025663;28;20479;-63
2023/04/05 06:02:09;;;;;;;10.50;3.20;;;;;;;;;;5026564;28;20497;-62
2023/04/05 06:04:36;;;;;;;7.60;3.40;;;;;;;;;;5026863;28;20529;-64
2023/04/05 06:07:03;;;;;;;13.97;5.57;;;;;;;;;;5027239;28;20441;-63
2023/04/05 06:09:34;;;;;;;5.63;3.70;;;;;;;;;;5025824;28;20453;-62
2023/04/05 06:12:01;;;;;;;7.57;3.30;;;;;;;;;;5025770;28;20477;-63
2023/04/05 06:14:28;;;;;;;8.90;4.10;;;;;;;;;;5007808;28;20572;-64
2023/04/05 06:16:55;;;;;;;7.83;3.80;;;;;;;;;;5026920;28;20442;-64
2023/04/05 06:19:22;;;;;;;9.83;3.63;;;;;;;;;;5026537;28;20801;-64
2023/04/05 06:21:49;;;;;;;6.37;2.80;;;;;;;;;;5026374;28;20481;-64
2023/04/05 06:24:16;;;;;;;6.10;2.80;;;;;;;;;;5026186;28;20430;-65
2023/04/05 06:26:46;;;;;;;5.00;2.33;;;;;;;;;;5026185;28;20203;-64
2023/04/05 06:29:14;;;;;;;6.13;2.50;;;;;;;;;;5025823;28;20563;-64
2023/04/05 06:31:45;;;;;;;6.13;1.73;;;;;;;;;;5024227;28;20454;-64
2023/04/05 06:34:12;;;;;;;2.63;1.60;;;;;;;;;;5025674;28;20286;-64
2023/04/05 06:36:41;;;;;;;6.37;1.97;;;;;;;;;;5025961;28;20507;-62
2023/04/05 06:39:08;;;;;;;3.67;1.60;;;;;;;;;;5025079;28;20489;-65
2023/04/05 06:41:38;;;;;;;3.67;1.50;;;;;;;;;;5025487;28;20446;-62
2023/04/05 06:44:05;;;;;;;4.97;1.50;;;;;;;;;;5026236;28;20191;-64
2023/04/05 06:46:32;;;;;;;3.60;1.90;;;;;;;;;;5025490;28;20206;-63
2023/04/05 06:48:59;;;;;;;6.33;2.27;;;;;;;;;;5020669;28;20944;-63
2023/04/05 06:51:30;;;;;;;3.93;1.60;;;;;;;;;;5012521;28;20192;-63
2023/04/05 06:53:57;;;;;;;4.07;1.60;;;;;;;;;;5025918;28;20190;-62
2023/04/05 06:56:25;;;;;;;5.80;2.10;;;;;;;;;;5026050;28;20282;-63
2023/04/05 06:58:54;;;;;;;5.73;1.93;;;;;;;;;;5024876;28;20450;-64
2023/04/05 07:01:23;;;;;;;6.87;3.20;;;;;;;;;;5025903;28;20195;-62
2023/04/05 07:03:50;;;;;;;10.30;3.87;;;;;;;;;;5025682;28;20223;-63
2023/04/05 07:06:17;;;;;;;13.83;5.80;;;;;;;;;;5022409;28;20192;-64
2023/04/05 07:08:44;;;;;;;8.03;4.40;;;;;;;;;;5026519;28;20490;-64
2023/04/05 07:11:11;;;;;;;11.73;4.67;;;;;;;;;;5034211;28;20441;-64
2023/04/05 07:13:38;;;;;;;11.00;5.10;;;;;;;;;;5045653;28;20433;-64
2023/04/05 07:16:05;;;;;;;4.20;1.87;;;;;;;;;;5020167;28;20442;-63
2023/04/05 07:18:32;;;;;;;3.43;1.23;;;;;;;;;;5025667;28;20426;-62
2023/04/05 07:21:00;;;;;;;3.33;1.73;;;;;;;;;;5026014;28;20441;-63
2023/04/05 07:23:27;;;;;;;5.50;1.53;;;;;;;;;;5024949;28;20984;-63
2023/04/05 07:25:54;;;;;;;3.53;1.50;;;;;;;;;;5025539;28;20438;-64
2023/04/05 07:28:21;;;;;;;6.20;2.80;;;;;;;;;;5026463;28;20532;-62
2023/04/05 07:30:49;;;;;;;6.43;3.37;;;;;;;;;;5027513;28;20453;-63
2023/04/05 07:33:16;;;;;;;5.03;1.53;;;;;;;;;;5024339;28;20434;-62
2023/04/05 07:35:44;;;;;;;3.70;1.60;;;;;;;;;;5025708;28;20433;-65
2023/04/05 07:38:14;;;;;;;9.00;1.93;;;;;;;;;;5025730;28;20438;-64
2023/04/05 07:40:40;;;;;;;9.57;4.40;;;;;;;;;;5015103;28;20484;-63
2023/04/05 07:43:08;;;;;;;7.73;2.57;;;;;;;;;;5006328;28;20466;-63
2023/04/05 07:45:35;;;;;;;6.20;2.43;;;;;;;;;;5008248;28;20450;-62
2023/04/05 07:48:02;;;;;;;3.40;2.00;;;;;;;;;;5039216;28;20447;-65
2023/04/05 07:50:29;;;;;;;11.40;4.40;;;;;;;;;;5014302;28;20929;-65
2023/04/05 07:52:55;;;;;;;4.33;2.10;;;;;;;;;;5025298;28;20446;-66
2023/04/05 07:55:23;;;;;;;5.73;2.03;;;;;;;;;;5024341;28;20484;-66
2023/04/05 07:57:50;;;;;;;3.27;1.70;;;;;;;;;;5023343;28;20441;-65
2023/04/05 08:00:18;;;;;;;3.03;1.50;;;;;;;;;;5041895;28;20437;-64
2023/04/05 08:02:45;;;;;;;3.87;1.93;;;;;;;;;;5025703;28;20510;-64
2023/04/05 08:05:11;;;;;;;3.93;1.70;;;;;;;;;;5025438;28;20442;-64
2023/04/05 08:07:38;;;;;;;3.70;2.37;;;;;;;;;;5025568;28;20476;-64
2023/04/05 08:10:05;;;;;;;5.03;1.97;;;;;;;;;;5025450;28;20995;-64
2023/04/05 08:12:32;;;;;;;6.07;1.67;;;;;;;;;;5025237;28;20438;-64
2023/04/05 08:14:59;;;;;;;6.37;2.13;;;;;;;;;;4999952;28;20521;-64
2023/04/05 08:17:27;;;;;;;5.93;1.90;;;;;;;;;;5024645;28;20441;-64
2023/04/05 08:19:55;;;;;;;5.10;1.70;;;;;;;;;;5025498;28;20219;-65
2023/04/05 08:22:21;;;;;;;3.10;1.40;;;;;;;;;;5025495;28;20466;-65
2023/04/05 08:24:48;;;;;;;5.70;1.33;;;;;;;;;;5023922;28;20184;-64
2023/04/05 08:27:15;;;;;;;5.53;1.10;;;;;;;;;;5024412;28;20206;-65
2023/04/05 08:29:43;;;;;;;8.27;1.53;;;;;;;;;;5007499;28;20202;-64
2023/04/05 08:32:10;;;;;;;3.53;1.57;;;;;;;;;;5025258;28;20249;-63
2023/04/05 08:34:37;;;;;;;6.40;1.47;;;;;;;;;;5025741;28;20431;-65
2023/04/05 08:37:04;;;;;;;3.60;1.27;;;;;;;;;;5025366;28;20210;-64
2023/04/05 08:39:33;;;;;;;4.33;1.40;;;;;;;;;;5016230;28;20473;-64
2023/04/05 08:42:01;;;;;;;3.60;1.50;;;;;;;;;;5007841;28;20438;-64
2023/04/05 08:44:33;;;;;;;3.93;1.60;;;;;;;;;;5025976;28;20440;-64
2023/04/05 08:47:00;;;;;;;4.63;1.70;;;;;;;;;;5011426;28;21092;-64
2023/04/05 08:49:26;;;;;;;5.87;3.03;;;;;;;;;;5011414;28;20438;-65
2023/04/05 08:51:53;;;;;;;5.87;1.70;;;;;;;;;;5024822;28;20541;-64
2023/04/05 08:54:20;;;;;;;2.17;1.20;;;;;;;;;;5028017;28;20802;-65
2023/04/05 08:56:48;;;;;;;2.03;1.00;;;;;;;;;;5027349;28;20270;-64
2023/04/05 08:59:15;;;;;;;2.30;1.10;;;;;;;;;;5027684;28;20194;-65
2023/04/05 09:01:43;;;;;;;5.33;1.60;;;;;;;;;;5027583;28;20203;-65
2023/04/05 09:04:30;;;;;;;6.20;1.43;;;;;;;;;;5028893;28;20494;-63
2023/04/05 09:07:00;;;;;;;1.67;1.07;;;;;;;;;;5028004;28;20911;-65
2023/04/05 09:09:27;;;;;;;3.80;1.03;;;;;;;;;;5025978;28;21012;-64
2023/04/05 09:11:55;;;;;;;2.73;1.30;;;;;;;;;;5037023;28;20468;-65
2023/04/05 09:14:23;;;;;;;1.93;1.00;;;;;;;;;;5030665;28;20433;-65
2023/04/05 09:16:50;;;;;;;1.57;0.93;;;;;;;;;;5015601;28;20430;-64
2023/04/05 09:19:17;;;;;;;3.97;1.30;;;;;;;;;;5028479;28;20797;-64
2023/04/05 09:22:02;;;;;;;2.13;1.03;;;;;;;;;;5027937;28;20442;-65
2023/04/05 09:24:40;;;;;;;2.53;1.17;;;;;;;;;;5009577;28;20509;-64
2023/04/05 09:27:11;;;;;;;3.97;2.03;;;;;;;;;;5027846;28;20817;-66
2023/04/05 09:29:39;;;;;;;5.33;1.53;;;;;;;;;;5027531;28;20465;-64
2023/04/05 09:32:07;;;;;;;4.80;2.17;;;;;;;;;;5009755;28;21036;-65
2023/04/05 09:34:37;;;;;;;6.73;1.73;;;;;;;;;;5031887;28;20977;-65
2023/04/05 09:37:17;;;;;;;13.47;5.57;;;;;;;;;;5009778;28;20512;-65
2023/04/05 09:39:44;;;;;;;2.93;1.70;;;;;;;;;;5027346;28;20457;-65
2023/04/05 09:42:12;;;;;;;4.40;1.57;;;;;;;;;;5014889;28;20942;-68
2023/04/05 09:44:52;;;;;;;2.77;1.27;;;;;;;;;;5024885;28;20565;-65
2023/04/05 09:47:20;;;;;;;4.73;1.90;;;;;;;;;;5027528;28;20458;-65
2023/04/05 09:49:51;;;;;;;3.47;1.10;;;;;;;;;;5006281;28;20434;-65
2023/04/05 09:52:27;;;;;;;5.50;1.13;;;;;;;;;;5020269;28;20950;-66
2023/04/05 09:54:55;;;;;;;3.37;1.00;;;;;;;;;;5026757;28;20441;-66
2023/04/05 09:57:26;;;;;;;7.40;2.10;;;;;;;;;;5009161;28;21056;-64
2023/04/05 09:59:53;;;;;;;1.60;0.83;;;;;;;;;;5026127;28;20191;-67
2023/04/05 10:02:22;;;;;;;8.57;4.17;;;;;;;;;;5025877;28;20685;-67
2023/04/05 10:04:49;;;;;;;2.67;1.50;;;;;;;;;;5027234;28;20485;-65
2023/04/05 10:07:17;;;;;;;3.17;1.27;;;;;;;;;;5024129;28;20273;-64
2023/04/05 10:09:44;;;;;;;2.87;1.50;;;;;;;;;;5024928;28;20600;-66
2023/04/05 10:12:12;;;;;;;3.63;1.40;;;;;;;;;;5027105;28;20242;-64
2023/04/05 10:14:39;;;;;;;1.87;0.97;;;;;;;;;;5027440;28;20213;-66
2023/04/05 10:17:06;;;;;;;6.63;1.60;;;;;;;;;;5027453;28;20434;-66
2023/04/05 10:19:32;;;;;;;2.53;1.00;;;;;;;;;;5025948;28;20198;-65
2023/04/05 10:21:59;;;;;;;4.13;1.97;;;;;;;;;;5027632;28;20751;-64
2023/04/05 10:24:35;;;;;;;4.10;1.40;;;;;;;;;;5026263;28;20203;-65
2023/04/05 10:27:12;;;;;;;4.07;1.70;;;;;;;;;;5009519;28;20202;-65
2023/04/05 10:29:44;;;;;;;3.97;1.40;;;;;;;;;;5009549;28;20205;-67
2023/04/05 10:32:12;;;;;;;2.47;1.37;;;;;;;;;;5026166;28;20192;-68
2023/04/05 10:34:59;;;;;;;2.17;1.30;;;;;;;;;;5026992;28;20442;-66
2023/04/05 10:37:29;;;;;;;3.50;1.40;;;;;;;;;;5021275;28;20447;-66
2023/04/05 10:39:56;;;;;;;3.50;2.03;;;;;;;;;;5027094;28;20222;-64
2023/04/05 10:42:33;;;;;;;4.37;1.33;;;;;;;;;;5045268;28;20203;-65
2023/04/05 10:45:03;;;;;;;2.93;1.30;;;;;;;;;;5026088;28;20274;-64
2023/04/05 10:47:30;;;;;;;6.30;2.57;;;;;;;;;;5012931;28;20626;-65
2023/04/05 10:49:57;;;;;;;4.57;1.67;;;;;;;;;;5028182;28;20211;-64
2023/04/05 10:52:24;;;;;;;2.80;1.10;;;;;;;;;;5022174;28;20194;-65
2023/04/05 10:54:51;;;;;;;2.70;1.17;;;;;;;;;;5020255;28;20481;-65
2023/04/05 10:57:18;;;;;;;3.30;1.37;;;;;;;;;;5026135;28;20441;-66
2023/04/05 10:59:45;;;;;;;6.70;1.30;;;;;;;;;;5025330;28;20590;-65
2023/04/05 11:02:12;;;;;;;4.00;1.07;;;;;;;;;;5008792;28;20237;-65
2023/04/05 11:04:40;;;;;;;5.00;1.13;;;;;;;;;;5026550;28;20223;-63
2023/04/05 11:07:11;;;;;;;2.67;1.10;;;;;;;;;;5025771;28;20192;-65
2023/04/05 11:09:59;;;;;;;3.67;1.40;;;;;;;;;;5026203;28;20223;-65
2023/04/05 11:12:47;;;;;;;0.90;0.73;;;;;;;;;;5032297;28;20275;-63
2023/04/05 11:15:30;;;;;;;2.37;0.90;;;;;;;;;;5016017;28;20240;-63
2023/04/05 11:18:10;;;;;;;1.90;1.00;;;;;;;;;;5026017;28;20686;-63
2023/04/05 11:20:46;;;;;;;4.17;1.00;;;;;;;;;;5030316;28;20606;-61
2023/04/05 11:23:14;;;;;;;4.27;1.20;;;;;;;;;;5031896;28;20462;-62
2023/04/05 11:25:44;;;;;;;3.20;1.13;;;;;;;;;;5026044;28;20430;-63
2023/04/05 11:28:27;;;;;;;5.07;1.77;;;;;;;;;;5007310;28;20435;-63
2023/04/05 11:30:57;;;;;;;2.80;1.20;;;;;;;;;;5025997;28;20937;-62
2023/04/05 11:33:43;;;;;;;2.90;1.50;;;;;;;;;;5025044;28;20511;-63
2023/04/05 11:36:28;;;;;;;4.60;1.70;;;;;;;;;;5025820;28;20437;-62
2023/04/05 11:39:13;;;;;;;6.80;1.57;;;;;;;;;;5025453;28;21000;-62
2023/04/05 11:41:40;;;;;;;2.60;1.40;;;;;;;;;;5032991;28;20510;-62
2023/04/05 11:44:09;;;;;;;5.27;1.20;;;;;;;;;;5036861;28;20485;-61
2023/04/05 11:46:36;;;;;;;4.70;1.33;;;;;;;;;;5006918;28;20465;-62
2023/04/05 11:49:02;;;;;;;5.43;1.40;;;;;;;;;;4997388;28;20521;-62
2023/04/05 11:51:30;;;;;;;4.47;1.07;;;;;;;;;;5027616;28;20441;-62
2023/04/05 11:53:56;;;;;;;2.87;1.20;;;;;;;;;;5028527;28;20941;-62
2023/04/05 11:56:24;;;;;;;2.10;1.00;;;;;;;;;;5028684;28;20655;-62
2023/04/05 11:58:51;;;;;;;2.70;1.40;;;;;;;;;;5028928;28;20973;-62
2023/04/05 12:01:18;;;;;;;2.63;1.03;;;;;;;;;;5028917;28;20286;-62
2023/04/05 12:03:51;;;;;;;3.73;1.07;;;;;;;;;;5028564;28;20527;-61
2023/04/05 12:06:20;;;;;;;37.00;3.47;;;;;;;;;;5027613;28;20192;-61
2023/04/05 12:08:49;;;;;;;2.97;1.43;;;;;;;;;;5028725;28;20456;-62
2023/04/05 12:11:22;;;;;;;3.87;1.10;;;;;;;;;;5028247;28;20274;-62
2023/04/05 12:13:54;;;;;;;5.17;1.30;;;;;;;;;;5028293;28;20705;-62
2023/04/05 12:16:21;;;;;;;2.77;1.30;;;;;;;;;;5028472;28;20188;-62
2023/04/05 12:18:52;;;;;;;6.33;1.63;;;;;;;;;;5028355;28;20670;-63
2023/04/05 12:21:21;;;;;;;1.93;1.13;;;;;;;;;;5028895;28;20203;-63
2023/04/05 12:23:48;;;;;;;2.47;1.20;;;;;;;;;;5029250;28;20610;-65
2023/04/05 12:26:15;;;;;;;2.50;1.20;;;;;;;;;;5011278;28;20449;-64
2023/04/05 12:29:11;;;;;;;3.63;1.37;;;;;;;;;;5011137;28;20524;-63
2023/04/05 12:31:42;;;;;;;3.63;1.50;;;;;;;;;;5015805;28;20529;-61
2023/04/05 12:34:11;;;;;;;2.33;1.60;;;;;;;;;;5029337;28;20196;-61
2023/04/05 12:36:38;;;;;;;3.87;1.60;;;;;;;;;;5029057;28;20479;-62
2023/04/05 12:39:06;;;;;;;3.30;1.33;;;;;;;;;;5034647;28;20947;-62
2023/04/05 12:41:34;;;;;;;7.83;2.40;;;;;;;;;;5029721;28;20442;-61
2023/04/05 12:44:04;;;;;;;3.63;1.33;;;;;;;;;;5036243;28;20963;-62
2023/04/05 12:46:38;;;;;;;6.83;1.97;;;;;;;;;;5028849;28;20541;-61
2023/04/05 12:49:10;;;;;;;5.87;1.63;;;;;;;;;;5028500;28;20500;-61
2023/04/05 12:51:41;;;;;;;5.53;2.00;;;;;;;;;;5028358;28;20545;-62
2023/04/05 12:54:14;;;;;;;4.27;1.70;;;;;;;;;;5028528;28;20441;-61
2023/04/05 12:56:41;;;;;;;1.80;1.07;;;;;;;;;;5011295;28;20442;-62
2023/04/05 12:59:08;;;;;;;2.60;1.20;;;;;;;;;;5010508;28;20933;-62
2023/04/05 13:01:34;;;;;;;2.63;1.27;;;;;;;;;;5028473;28;20944;-62
2023/04/05 13:04:03;;;;;;;2.83;1.30;;;;;;;;;;5028602;28;20473;-62
2023/04/05 13:06:42;;;;;;;3.50;1.40;;;;;;;;;;5035678;28;20436;-62
2023/04/05 13:09:12;;;;;;;2.77;1.50;;;;;;;;;;5032839;28;21299;-63
2023/04/05 13:11:38;;;;;;;3.77;1.97;;;;;;;;;;5014528;28;21024;-63
2023/04/05 13:14:06;;;;;;;3.30;1.27;;;;;;;;;;5031086;28;20525;-62
2023/04/05 13:16:32;;;;;;;4.47;1.63;;;;;;;;;;5027483;28;20480;-62
2023/04/05 13:19:00;;;;;;;3.60;1.70;;;;;;;;;;5027403;28;20554;-63
2023/04/05 13:21:27;;;;;;;3.70;1.73;;;;;;;;;;5027226;28;20492;-61
2023/04/05 13:23:54;;;;;;;5.17;1.60;;;;;;;;;;5025818;28;20461;-62
2023/04/05 13:26:22;;;;;;;3.90;1.53;;;;;;;;;;5011912;28;20434;-62
2023/04/05 13:28:49;;;;;;;3.63;1.30;;;;;;;;;;5026801;28;20445;-63
2023/04/05 13:31:16;;;;;;;3.27;1.70;;;;;;;;;;5009626;28;20442;-63
2023/04/05 13:33:43;;;;;;;2.93;1.33;;;;;;;;;;5027103;28;20253;-62
2023/04/05 13:36:11;;;;;;;2.70;1.43;;;;;;;;;;5026413;28;20529;-62
2023/04/05 13:38:40;;;;;;;4.00;2.20;;;;;;;;;;5011782;28;20227;-63
2023/04/05 13:41:08;;;;;;;5.00;1.57;;;;;;;;;;5027893;28;20450;-64
2023/04/05 13:43:34;;;;;;;5.00;2.27;;;;;;;;;;5026735;28;20527;-63
2023/04/05 13:46:02;;;;;;;3.30;1.17;;;;;;;;;;5024356;28;20441;-61
2023/04/05 13:49:11;;;;;;;;;;;;;;;;;;;;;
2023/04/05 14:03:23;;;;;;;4.20;1.30;;;;;;;;;;4962605;28;20561;-62
2023/04/05 14:05:50;;;;;;;3.33;1.40;;;;;;;;;;4969512;28;20281;-61
2023/04/05 14:08:20;;;;;;;2.20;1.20;;;;;;;;;;4970766;28;20201;-61
2023/04/05 14:10:47;;;;;;;6.33;2.63;;;;;;;;;;5015675;28;20957;-61
2023/04/05 14:13:16;;;;;;;4.23;1.90;;;;;;;;;;5026164;28;20443;-61
2023/04/05 14:15:43;;;;;;;12.03;5.80;;;;;;;;;;5030356;28;20422;-61
2023/04/05 14:18:11;;;;;;;5.00;2.40;;;;;;;;;;5032528;28;20517;-62
2023/04/05 14:20:37;;;;;;;6.47;3.13;;;;;;;;;;5013585;28;20197;-61
2023/04/05 14:23:07;;;;;;;12.03;8.00;;;;;;;;;;5032099;28;20246;-61
2023/04/05 14:25:34;;;;;;;3.97;1.80;;;;;;;;;;5030315;28;20298;-62
2023/04/05 14:28:01;;;;;;;6.93;3.20;;;;;;;;;;5024087;28;20525;-63
2023/04/05 14:30:27;;;;;;;5.20;1.90;;;;;;;;;;5030630;28;20945;-63
2023/04/05 14:32:54;;;;;;;4.83;1.67;;;;;;;;;;5036262;28;20930;-62
2023/04/05 14:35:21;;;;;;;2.67;1.73;;;;;;;;;;5031876;28;20218;-62
2023/04/05 14:37:48;;;;;;;5.83;1.70;;;;;;;;;;5029212;28;20481;-62
2023/04/05 14:40:15;;;;;;;3.27;1.70;;;;;;;;;;5030592;28;20344;-62
2023/04/05 14:42:42;;;;;;;5.53;2.80;;;;;;;;;;5029525;28;20442;-62
2023/04/05 14:45:16;;;;;;;11.23;5.50;;;;;;;;;;5022741;28;20824;-62
2023/04/05 14:47:43;;;;;;;2.77;1.60;;;;;;;;;;5023516;28;20537;-62
2023/04/05 14:50:10;;;;;;;7.17;3.50;;;;;;;;;;5024878;28;20486;-62
2023/04/05 14:52:38;;;;;;;4.67;1.73;;;;;;;;;;5028695;28;20438;-62
2023/04/05 14:55:06;;;;;;;13.27;5.87;;;;;;;;;;5027065;28;20477;-63
2023/04/05 14:57:33;;;;;;;8.00;2.73;;;;;;;;;;5024461;28;20445;-62
2023/04/05 15:00:00;;;;;;;6.63;2.90;;;;;;;;;;5025688;28;20456;-62
2023/04/05 15:02:28;;;;;;;36.60;10.87;;;;;;;;;;5027132;28;20442;-62
2023/04/05 15:04:59;;;;;;;4.80;2.37;;;;;;;;;;5023361;28;20474;-63
2023/04/05 15:07:26;;;;;;;3.87;1.97;;;;;;;;;;5028006;28;20438;-62
2023/04/05 15:12:52;;;;;;;5.27;1.50;;;;;;;;;;5010874;28;20524;-63
2023/04/05 15:15:20;;;;;;;6.47;2.87;;;;;;;;;;5027896;28;20453;-63
2023/04/05 15:17:47;;;;;;;5.53;2.03;;;;;;;;;;5023430;28;20523;-62
2023/04/05 15:20:14;;;;;;;7.77;3.07;;;;;;;;;;5024597;28;20477;-62
2023/04/05 15:22:45;;;;;;;43.57;14.73;;;;;;;;;;5020730;28;20435;-62
2023/04/05 15:25:12;;;;;;;37.07;12.37;;;;;;;;;;5027343;28;20223;-62
2023/04/05 15:27:39;;;;;;;21.87;7.93;;;;;;;;;;5028267;28;20453;-62
2023/04/05 15:30:06;;;;;;;21.87;6.27;;;;;;;;;;5027540;28;20434;-62
2023/04/05 15:32:35;;;;;;;12.47;5.40;;;;;;;;;;5010355;28;20457;-61
2023/04/05 15:35:01;;;;;;;61.87;20.17;;;;;;;;;;5026995;28;20426;-66
2023/04/05 15:37:28;;;;;;;45.23;16.20;;;;;;;;;;5027973;28;20476;-65
2023/04/05 15:39:55;;;;;;;23.23;9.60;;;;;;;;;;5010206;28;21222;-65
2023/04/05 15:42:21;;;;;;;12.03;4.67;;;;;;;;;;5025245;28;20465;-67
2023/04/05 15:44:50;;;;;;;12.13;4.23;;;;;;;;;;5025475;28;20548;-68